Time;durP1;ratioP1;P1;durP2;ratioP2;P2;SDS_P1;SDS_P2;PMS_P1;PMS_P2;Temp;Humidity;BMP_temperature;BMP_pressure;BME280_temperature;BME280_humidity;BME280_pressure;Samples;Min_cycle;Max_cycle;Signal;HPM_P1;HPM_P2
2023/10/04 00:01:34;;;;;;;1.40;1.00;;;;;;;22.34;43.10;101369.13;4614171;27;20066;-63
2023/10/04 00:03:46;;;;;;;1.10;0.70;;;;;;;22.37;43.04;101379.91;4616277;27;20118;-63
2023/10/04 00:05:56;;;;;;;1.27;0.80;;;;;;;22.38;43.23;101382.44;4616852;27;20037;-63
2023/10/04 00:08:07;;;;;;;1.58;0.88;;;;;;;22.36;43.19;101381.13;4616498;27;20078;-63
2023/10/04 00:10:18;;;;;;;1.50;1.00;;;;;;;22.34;42.90;101374.88;4615640;27;20043;-63
2023/10/04 00:12:29;;;;;;;0.95;0.70;;;;;;;22.36;43.22;101381.94;4615923;27;20133;-63
2023/10/04 00:14:39;;;;;;;1.65;0.68;;;;;;;22.34;42.96;101380.63;4615875;27;20114;-63
2023/10/04 00:16:49;;;;;;;1.10;0.90;;;;;;;22.34;43.23;101374.88;4615307;27;20435;-63
2023/10/04 00:19:01;;;;;;;1.65;0.98;;;;;;;22.34;43.33;101374.88;4615742;27;20388;-63
2023/10/04 00:21:12;;;;;;;1.80;0.90;;;;;;;22.36;43.33;101387.69;4616234;27;20039;-63
2023/10/04 00:23:22;;;;;;;1.35;0.90;;;;;;;22.33;43.38;101378.94;4617023;27;20043;-63
2023/10/04 00:25:33;;;;;;;1.30;0.80;;;;;;;22.36;43.35;101386.88;4616459;27;20550;-63
2023/10/04 00:27:44;;;;;;;1.33;0.85;;;;;;;22.08;42.99;101346.50;4615899;27;20038;-63
2023/10/04 00:29:54;;;;;;;0.95;0.77;;;;;;;22.36;43.40;101396.31;4604217;27;20070;-63
2023/10/04 00:32:05;;;;;;;1.50;0.90;;;;;;;22.36;43.02;101401.25;4615582;27;20027;-63
2023/10/04 00:34:16;;;;;;;1.08;0.73;;;;;;;22.37;43.39;101402.94;4616757;27;20031;-63
2023/10/04 00:36:28;;;;;;;1.13;0.80;;;;;;;22.35;43.17;101400.41;4614090;27;20387;-63
2023/10/04 00:38:39;;;;;;;1.17;0.68;;;;;;;22.36;43.22;101402.09;4617627;27;20100;-63
2023/10/04 00:40:52;;;;;;;1.35;0.63;;;;;;;22.35;43.71;101411.91;4616306;27;20038;-63
2023/10/04 00:43:14;;;;;;;1.63;0.90;;;;;;;22.32;43.12;101406.88;4614855;27;20038;-63
2023/10/04 00:45:25;;;;;;;2.30;1.08;;;;;;;22.35;43.43;101405.31;4616051;27;20114;-63
2023/10/04 00:47:35;;;;;;;1.52;0.90;;;;;;;22.31;43.25;101404.38;4598736;27;20130;-63
2023/10/04 00:49:46;;;;;;;1.38;0.82;;;;;;;22.32;43.17;101403.16;4613753;27;20032;-63
2023/10/04 00:51:58;;;;;;;1.30;0.80;;;;;;;22.34;43.13;101406.53;4615668;27;20039;-63
2023/10/04 00:54:10;;;;;;;0.85;0.75;;;;;;;22.35;43.47;101416.81;4604457;27;20089;-63
2023/10/04 00:56:23;;;;;;;1.20;0.70;;;;;;;22.29;43.59;101406.75;4620458;27;20046;-63
2023/10/04 00:58:35;;;;;;;1.30;0.80;;;;;;;22.35;43.49;101416.81;4613938;27;20046;-63
2023/10/04 01:00:47;;;;;;;1.13;0.80;;;;;;;22.34;43.56;101421.75;4615332;27;20131;-63
2023/10/04 01:02:58;;;;;;;1.10;0.73;;;;;;;22.33;43.30;101417.19;4616508;27;20036;-63
2023/10/04 01:05:09;;;;;;;1.48;0.70;;;;;;;22.28;43.25;101413.72;4613085;27;20031;-63
2023/10/04 01:07:21;;;;;;;1.83;0.93;;;;;;;22.33;43.38;101422.09;4616237;27;20147;-63
2023/10/04 01:09:31;;;;;;;0.82;0.70;;;;;;;22.28;43.58;101417.41;4616346;27;20097;-63
2023/10/04 01:11:46;;;;;;;1.40;0.80;;;;;;;22.20;43.11;101407.72;4613708;27;20057;-63
2023/10/04 01:14:08;;;;;;;2.13;0.80;;;;;;;22.32;43.57;101429.06;4602896;27;20090;-63
2023/10/04 01:16:23;;;;;;;1.08;0.70;;;;;;;22.27;43.52;101424.38;4616303;27;20035;-63
2023/10/04 01:18:35;;;;;;;1.75;0.80;;;;;;;22.31;43.33;101430.25;4616872;27;20649;-63
2023/10/04 01:20:46;;;;;;;1.48;0.80;;;;;;;22.23;43.46;101411.94;4611899;27;20057;-63
2023/10/04 01:23:00;;;;;;;1.55;0.70;;;;;;;22.31;43.11;101431.06;4616911;27;20031;-63
2023/10/04 01:25:11;;;;;;;1.50;0.80;;;;;;;22.30;43.29;101432.28;4611776;27;21449;-63
2023/10/04 01:27:25;;;;;;;0.98;0.70;;;;;;;22.28;43.07;101423.16;4613946;27;20031;-63
2023/10/04 01:29:38;;;;;;;1.35;0.82;;;;;;;22.28;43.06;101428.09;4614262;27;20090;-66
2023/10/04 01:31:49;;;;;;;1.20;0.60;;;;;;;22.22;43.57;101418.84;4614734;27;20031;-63
2023/10/04 01:33:59;;;;;;;1.00;0.73;;;;;;;22.30;43.16;101425.69;4614681;27;20535;-63
2023/10/04 01:36:10;;;;;;;1.02;0.60;;;;;;;22.30;43.13;101428.56;4615470;27;21158;-63
2023/10/04 01:38:25;;;;;;;1.55;0.88;;;;;;;22.31;43.66;101430.25;4615156;27;20035;-63
2023/10/04 01:40:35;;;;;;;2.30;0.80;;;;;;;22.29;43.42;101429.78;4614166;27;20042;-63
2023/10/04 01:42:46;;;;;;;1.35;0.90;;;;;;;22.28;43.23;101423.16;4615089;27;20393;-63
2023/10/04 01:44:57;;;;;;;1.88;0.77;;;;;;;22.28;43.26;101428.09;4614517;27;20040;-63
2023/10/04 01:47:08;;;;;;;1.10;0.80;;;;;;;22.27;43.21;101415.75;4616505;27;20082;-64
2023/10/04 01:49:18;;;;;;;1.45;0.90;;;;;;;22.26;43.49;101421.88;4619013;27;20504;-63
2023/10/04 01:51:29;;;;;;;1.83;0.90;;;;;;;22.27;43.10;101424.38;4618925;27;20035;-63
2023/10/04 01:53:42;;;;;;;1.80;0.85;;;;;;;22.28;43.40;101422.34;4617539;27;20030;-63
2023/10/04 01:55:54;;;;;;;1.30;0.77;;;;;;;22.25;43.56;101423.88;4616665;27;20195;-63
2023/10/04 01:58:04;;;;;;;1.00;0.70;;;;;;;22.23;43.58;101428.34;4633847;27;20147;-63
2023/10/04 02:00:20;;;;;;;1.58;0.88;;;;;;;22.28;43.32;101431.78;4616748;27;20088;-63
2023/10/04 02:02:31;;;;;;;1.17;0.93;;;;;;;22.26;43.16;101424.75;4622867;27;21200;-63
2023/10/04 02:04:41;;;;;;;1.23;0.70;;;;;;;22.27;43.41;101417.78;4618893;27;20039;-63
2023/10/04 02:06:52;;;;;;;0.80;0.57;;;;;;;22.27;43.55;101421.50;4618298;27;20120;-63
2023/10/04 02:09:03;;;;;;;1.17;0.80;;;;;;;22.26;43.21;101416.13;4617751;27;20019;-63
2023/10/04 02:11:13;;;;;;;2.00;0.90;;;;;;;22.26;43.44;101419.00;4618196;27;20042;-63
2023/10/04 02:13:25;;;;;;;0.90;0.60;;;;;;;22.25;43.25;101417.31;4618145;27;20367;-63
2023/10/04 02:15:36;;;;;;;1.23;0.77;;;;;;;22.26;43.21;101422.72;4617685;27;20127;-63
2023/10/04 02:17:47;;;;;;;1.48;0.70;;;;;;;22.25;43.30;101420.19;4617522;27;20031;-63
2023/10/04 02:19:57;;;;;;;1.35;0.80;;;;;;;22.22;43.63;101413.09;4617526;27;20043;-63
2023/10/04 02:22:08;;;;;;;1.00;0.70;;;;;;;22.25;43.30;101423.06;4606387;27;20027;-63
2023/10/04 02:24:18;;;;;;;1.23;0.70;;;;;;;22.21;43.44;101420.88;4618766;27;20433;-63
2023/10/04 02:26:31;;;;;;;1.13;0.70;;;;;;;22.26;43.66;101421.88;4618760;27;20031;-63
2023/10/04 02:28:42;;;;;;;1.20;0.77;;;;;;;22.25;43.42;101426.75;4617237;27;20182;-63
2023/10/04 02:30:55;;;;;;;1.05;0.80;;;;;;;22.24;43.65;101419.34;4617981;27;20129;-63
2023/10/04 02:33:13;;;;;;;1.70;0.80;;;;;;;22.22;43.36;101418.84;4606609;27;20499;-63
2023/10/04 02:35:28;;;;;;;1.00;0.50;;;;;;;22.21;43.33;101429.50;4616332;27;20015;-63
2023/10/04 02:37:42;;;;;;;0.90;0.60;;;;;;;22.21;43.41;101432.38;4605679;27;20036;-63
2023/10/04 02:39:52;;;;;;;0.98;0.68;;;;;;;22.23;43.39;101436.97;4616631;27;20027;-63
2023/10/04 02:42:09;;;;;;;1.60;0.60;;;;;;;22.23;43.79;101434.09;4613267;27;20035;-63
2023/10/04 02:44:22;;;;;;;1.45;0.82;;;;;;;22.22;43.73;101441.88;4618289;27;20152;-63
2023/10/04 02:46:33;;;;;;;1.45;0.70;;;;;;;22.22;43.63;101441.88;4615377;27;20142;-63
2023/10/04 02:48:43;;;;;;;1.52;0.73;;;;;;;22.24;43.72;101445.22;4632683;27;20030;-63
2023/10/04 02:50:58;;;;;;;1.02;0.65;;;;;;;22.18;43.78;101430.22;4618502;27;20088;-63
2023/10/04 02:53:12;;;;;;;1.00;0.65;;;;;;;22.20;43.63;101436.47;4619037;27;20122;-63
2023/10/04 02:55:23;;;;;;;0.88;0.60;;;;;;;22.21;43.32;101441.00;4616892;27;20046;-63
2023/10/04 02:57:33;;;;;;;1.67;0.80;;;;;;;22.20;43.70;101438.50;4604398;27;20094;-63
2023/10/04 02:59:44;;;;;;;0.88;0.60;;;;;;;22.21;43.59;101434.44;4616957;27;20088;-63
2023/10/04 03:01:54;;;;;;;1.17;0.77;;;;;;;22.23;43.45;101438.63;4617238;27;20835;-63
2023/10/04 03:04:06;;;;;;;0.88;0.73;;;;;;;22.19;43.36;101431.94;4617695;27;20112;-63
2023/10/04 03:06:16;;;;;;;2.00;0.73;;;;;;;22.20;43.54;101429.88;4617025;27;20123;-63
2023/10/04 03:08:27;;;;;;;0.95;0.70;;;;;;;22.15;43.40;101430.13;4605204;27;20120;-63
2023/10/04 03:10:40;;;;;;;1.38;0.82;;;;;;;22.21;43.65;101443.88;4617554;27;20032;-63
2023/10/04 03:13:01;;;;;;;1.23;0.80;;;;;;;22.18;43.66;101438.84;4615799;27;20635;-63
2023/10/04 03:15:13;;;;;;;1.42;0.90;;;;;;;22.15;43.79;101442.47;4622057;27;20091;-63
2023/10/04 03:17:24;;;;;;;1.45;0.68;;;;;;;22.15;43.65;101451.09;4616378;27;20119;-63
2023/10/04 03:19:36;;;;;;;0.82;0.52;;;;;;;22.19;43.49;101446.31;4617214;27;20092;-63
2023/10/04 03:21:46;;;;;;;0.82;0.63;;;;;;;22.17;43.61;101437.19;4617571;27;20041;-63
2023/10/04 03:23:58;;;;;;;2.15;0.70;;;;;;;22.16;43.88;101437.56;4616145;27;20616;-63
2023/10/04 03:26:12;;;;;;;0.60;0.60;;;;;;;22.19;43.94;101445.47;4616771;27;20105;-63
2023/10/04 03:28:25;;;;;;;1.17;0.65;;;;;;;22.17;43.43;101439.22;4631915;27;20031;-63
2023/10/04 03:30:35;;;;;;;1.90;0.80;;;;;;;22.17;43.60;101445.81;4615235;27;20027;-63
2023/10/04 03:32:52;;;;;;;1.35;0.77;;;;;;;22.19;43.70;101451.22;4617245;27;20023;-63
2023/10/04 03:35:07;;;;;;;1.20;0.70;;;;;;;22.18;43.78;101456.13;4614792;27;20088;-63
2023/10/04 03:37:23;;;;;;;1.20;0.75;;;;;;;22.18;43.98;101455.28;4617449;27;20038;-63
2023/10/04 03:39:35;;;;;;;1.55;0.70;;;;;;;22.16;43.87;101455.66;4615138;27;20126;-63
2023/10/04 03:41:49;;;;;;;0.73;0.60;;;;;;;22.17;43.55;101465.09;4617165;27;20046;-63
2023/10/04 03:44:00;;;;;;;1.13;0.50;;;;;;;22.16;43.49;101460.56;4617409;27;20054;-63
2023/10/04 03:46:18;;;;;;;1.42;0.63;;;;;;;22.16;43.69;101461.41;4614809;27;20031;-63
2023/10/04 03:48:29;;;;;;;1.33;0.80;;;;;;;22.06;43.93;101438.00;4605519;27;20851;-63
2023/10/04 03:50:46;;;;;;;1.07;0.60;;;;;;;22.07;43.67;101446.28;4617246;27;20162;-63
2023/10/04 03:52:59;;;;;;;1.90;0.70;;;;;;;22.14;43.56;101458.03;4603719;27;20863;-63
2023/10/04 03:55:12;;;;;;;1.63;0.80;;;;;;;22.16;43.74;101461.41;4600664;27;20035;-63
2023/10/04 03:57:25;;;;;;;1.48;0.70;;;;;;;22.12;43.64;101460.44;4603608;27;20120;-63
2023/10/04 03:59:35;;;;;;;1.45;0.60;;;;;;;22.12;43.89;101462.44;4617175;27;20039;-63
2023/10/04 04:01:45;;;;;;;1.15;0.70;;;;;;;22.14;43.50;101462.94;4617868;27;20404;-63
2023/10/04 04:04:02;;;;;;;0.95;0.70;;;;;;;22.15;43.89;101461.75;4623236;27;20039;-63
2023/10/04 04:06:13;;;;;;;;;;;;;;;22.16;43.94;101461.41;4615845;27;20123;-63
2023/10/04 04:08:25;;;;;;;1.48;0.70;;;;;;;22.15;43.80;101458.88;4615258;27;19922;-63
2023/10/04 04:10:36;;;;;;;1.42;0.68;;;;;;;22.13;43.48;101447.75;4615536;27;20039;-63
2023/10/04 04:12:46;;;;;;;1.23;0.70;;;;;;;22.04;43.56;101441.25;4612835;27;21037;-63
2023/10/04 04:14:57;;;;;;;1.17;0.73;;;;;;;22.14;43.35;101466.66;4616699;27;20031;-63
2023/10/04 04:17:07;;;;;;;1.05;0.70;;;;;;;22.15;43.53;101464.63;4616314;27;20055;-63
2023/10/04 04:19:22;;;;;;;1.20;0.65;;;;;;;22.09;43.71;101451.66;4616148;27;20047;-63
2023/10/04 04:21:33;;;;;;;1.33;0.70;;;;;;;22.09;43.87;101449.63;4616164;27;20027;-63
2023/10/04 04:23:44;;;;;;;1.60;0.60;;;;;;;22.12;44.11;101451.78;4614973;27;20031;-63
2023/10/04 04:25:59;;;;;;;1.58;0.70;;;;;;;22.14;43.39;101451.44;4615434;27;20027;-63
2023/10/04 04:28:14;;;;;;;1.95;0.80;;;;;;;22.13;43.68;101450.63;4615610;27;20162;-63
2023/10/04 04:30:31;;;;;;;2.15;0.75;;;;;;;22.12;43.78;101448.06;4604870;27;20028;-63
2023/10/04 04:32:44;;;;;;;1.30;0.88;;;;;;;22.10;43.60;101444.75;4617790;27;20035;-63
2023/10/04 04:34:55;;;;;;;1.60;0.80;;;;;;;22.07;44.08;101442.59;4616166;27;20042;-63
2023/10/04 04:37:08;;;;;;;1.45;0.70;;;;;;;22.11;43.80;101450.13;4616544;27;20034;-63
2023/10/04 04:39:18;;;;;;;1.35;0.60;;;;;;;22.11;43.64;101453.00;4614437;27;20031;-63
2023/10/04 04:41:30;;;;;;;0.77;0.70;;;;;;;22.13;43.74;101452.66;4615502;27;20039;-63
2023/10/04 04:43:40;;;;;;;1.17;0.70;;;;;;;22.05;43.78;101437.19;4614682;27;20039;-63
2023/10/04 04:45:54;;;;;;;1.23;0.70;;;;;;;22.13;43.78;101452.66;4616928;27;20038;-63
2023/10/04 04:48:08;;;;;;;1.35;0.70;;;;;;;22.09;44.07;101458.28;4616178;27;20019;-63
2023/10/04 04:50:19;;;;;;;0.98;0.70;;;;;;;22.08;43.60;101459.47;4613504;27;20031;-63
2023/10/04 04:52:31;;;;;;;1.20;0.65;;;;;;;22.04;43.83;101464.25;4621243;27;20132;-63
2023/10/04 04:54:42;;;;;;;1.52;0.80;;;;;;;22.09;43.73;101466.88;4603551;27;20032;-63
2023/10/04 04:56:53;;;;;;;1.25;0.70;;;;;;;22.09;44.08;101466.88;4616293;27;20031;-63
2023/10/04 04:59:07;;;;;;;1.23;0.80;;;;;;;22.07;43.88;101468.47;4615524;27;20828;-63
2023/10/04 05:01:18;;;;;;;2.40;0.70;;;;;;;22.08;44.04;101470.97;4615968;27;20184;-63
2023/10/04 05:03:33;;;;;;;1.30;1.00;;;;;;;22.09;44.07;101471.78;4615539;27;20101;-63
2023/10/04 05:05:44;;;;;;;2.17;0.73;;;;;;;22.11;44.27;101472.28;4616568;27;20034;-63
2023/10/04 05:07:55;;;;;;;1.48;0.75;;;;;;;22.10;44.35;101474.31;4616572;27;20080;-63
2023/10/04 05:10:10;;;;;;;1.73;0.88;;;;;;;22.07;44.09;101469.28;4616151;27;20089;-63
2023/10/04 05:12:21;;;;;;;1.33;0.60;;;;;;;22.06;43.93;101467.59;4614973;27;20039;-63
2023/10/04 05:14:31;;;;;;;0.93;0.65;;;;;;;22.06;44.05;101470.47;4614542;27;20042;-63
2023/10/04 05:16:42;;;;;;;1.15;0.80;;;;;;;22.03;44.24;101462.56;4615333;27;20068;-63
2023/10/04 05:18:53;;;;;;;1.95;0.82;;;;;;;22.07;44.00;101463.53;4612982;27;20066;-63
2023/10/04 05:21:05;;;;;;;2.30;1.00;;;;;;;22.08;44.04;101465.22;4614169;27;20016;-63
2023/10/04 05:23:17;;;;;;;1.48;0.90;;;;;;;22.09;43.82;101483.28;4617351;27;20074;-63
2023/10/04 05:25:27;;;;;;;2.03;0.90;;;;;;;22.07;44.22;101480.78;4617569;27;21191;-63
2023/10/04 05:27:38;;;;;;;1.77;1.25;;;;;;;22.03;43.95;101481.84;4620265;27;20065;-63
2023/10/04 05:29:48;;;;;;;1.40;0.90;;;;;;;22.06;44.25;101499.22;4617830;27;20106;-62
2023/10/04 05:31:59;;;;;;;1.10;0.75;;;;;;;22.05;44.39;101500.44;4619538;27;20508;-62
2023/10/04 05:34:10;;;;;;;1.65;0.82;;;;;;;22.05;44.09;101500.44;4617722;27;20035;-62
2023/10/04 05:36:22;;;;;;;0.95;0.82;;;;;;;22.02;43.96;101488.81;4617862;27;20015;-62
2023/10/04 05:38:34;;;;;;;1.40;0.90;;;;;;;22.01;43.92;101485.09;4619201;27;20051;-62
2023/10/04 05:40:46;;;;;;;1.38;1.00;;;;;;;22.01;44.19;101482.22;4618060;27;20203;-62
2023/10/04 05:42:58;;;;;;;2.25;0.93;;;;;;;22.06;44.22;101498.38;4619625;27;20061;-62
2023/10/04 05:45:10;;;;;;;1.95;1.00;;;;;;;22.03;43.92;101502.81;4606665;27;20008;-62
2023/10/04 05:47:21;;;;;;;1.63;0.88;;;;;;;22.01;44.41;101495.72;4616739;27;20047;-62
2023/10/04 05:49:31;;;;;;;1.92;0.90;;;;;;;22.04;44.31;101501.63;4618616;27;20390;-62
2023/10/04 05:51:42;;;;;;;1.75;0.90;;;;;;;22.05;44.27;101509.06;4618921;27;20085;-62
2023/10/04 05:53:53;;;;;;;1.10;0.90;;;;;;;22.03;43.89;101501.97;4618104;27;20118;-62
2023/10/04 05:56:03;;;;;;;1.70;0.85;;;;;;;22.04;43.86;101504.50;4616472;27;20035;-62
2023/10/04 05:58:15;;;;;;;1.60;0.80;;;;;;;22.03;44.17;101508.56;4615908;27;20040;-63
2023/10/04 06:00:28;;;;;;;1.73;0.90;;;;;;;22.03;44.18;101511.44;4619265;27;20034;-62
2023/10/04 06:02:38;;;;;;;2.17;1.08;;;;;;;22.01;43.97;101504.34;4618387;27;20034;-62
2023/10/04 06:04:49;;;;;;;2.00;0.90;;;;;;;21.90;44.11;101485.88;4618466;27;20029;-62
2023/10/04 06:06:59;;;;;;;1.73;0.95;;;;;;;21.99;44.05;101492.41;4618376;27;20437;-62
2023/10/04 06:09:10;;;;;;;1.90;0.98;;;;;;;22.04;44.10;101507.38;4618006;27;20039;-62
2023/10/04 06:11:20;;;;;;;2.25;1.05;;;;;;;22.03;44.04;101501.97;4618120;27;20129;-62
2023/10/04 06:13:31;;;;;;;2.35;0.98;;;;;;;22.01;44.02;101502.34;4616454;27;20402;-62
2023/10/04 06:15:44;;;;;;;1.33;0.93;;;;;;;21.96;44.17;101499.69;4618216;27;20062;-62
2023/10/04 06:17:56;;;;;;;1.45;1.00;;;;;;;21.98;44.44;101503.03;4617097;27;20035;-62
2023/10/04 06:22:38;;;;;;;1.30;0.80;;;;;;;22.02;44.18;101517.56;4601360;27;20039;-62
2023/10/04 06:24:49;;;;;;;1.65;0.90;;;;;;;22.01;44.01;101519.56;4617416;27;20114;-62
2023/10/04 06:27:00;;;;;;;2.25;1.30;;;;;;;22.03;44.30;101520.06;4617285;27;20071;-62
2023/10/04 06:29:10;;;;;;;1.42;0.88;;;;;;;22.00;44.18;101520.78;4617668;27;20455;-62
2023/10/04 06:31:21;;;;;;;1.25;0.90;;;;;;;22.01;44.63;101521.59;4617216;27;20047;-62
2023/10/04 06:33:31;;;;;;;1.60;0.90;;;;;;;21.95;44.52;101518.13;4617340;27;20062;-62
2023/10/04 06:35:44;;;;;;;1.92;0.80;;;;;;;22.01;44.85;101531.06;4616975;27;20146;-62
2023/10/04 06:38:00;;;;;;;1.90;1.10;;;;;;;21.98;44.87;101540.41;4616960;27;20031;-62
2023/10/04 06:40:19;;;;;;;1.73;0.90;;;;;;;22.00;44.66;101538.03;4618140;27;20023;-62
2023/10/04 06:42:29;;;;;;;1.83;0.90;;;;;;;22.00;44.49;101537.19;4617709;27;20133;-62
2023/10/04 06:44:39;;;;;;;1.77;0.90;;;;;;;21.99;44.85;101544.97;4617556;27;20518;-62
2023/10/04 06:46:50;;;;;;;1.70;0.90;;;;;;;21.96;44.92;101541.97;4616898;27;20084;-62
2023/10/04 06:49:00;;;;;;;2.20;1.00;;;;;;;22.02;44.67;101563.56;4616144;27;20079;-62
2023/10/04 06:51:11;;;;;;;1.23;0.80;;;;;;;22.00;45.00;101563.91;4619670;27;20027;-62
2023/10/04 06:53:22;;;;;;;2.30;1.02;;;;;;;22.01;44.93;101561.84;4606113;27;20049;-62
2023/10/04 06:55:33;;;;;;;1.42;1.00;;;;;;;21.88;45.02;101546.59;4617795;27;20796;-62
2023/10/04 06:57:45;;;;;;;2.40;1.02;;;;;;;21.99;44.83;101570.84;4619337;27;20042;-62
2023/10/04 06:59:58;;;;;;;2.58;1.17;;;;;;;21.96;44.98;101565.78;4597680;27;20115;-62
2023/10/04 07:02:09;;;;;;;1.63;0.95;;;;;;;21.96;45.26;101560.03;4617489;27;20027;-62
2023/10/04 07:04:20;;;;;;;1.08;0.85;;;;;;;21.99;45.10;101573.72;4617195;27;20035;-62
2023/10/04 07:06:32;;;;;;;1.38;0.90;;;;;;;21.93;44.87;101575.13;4616579;27;20050;-62
2023/10/04 07:08:43;;;;;;;2.25;0.88;;;;;;;21.98;45.50;101597.91;4615734;27;20035;-62
2023/10/04 07:10:54;;;;;;;1.27;0.98;;;;;;;21.98;45.38;101592.16;4616115;27;20031;-62
2023/10/04 07:13:07;;;;;;;1.85;1.00;;;;;;;21.96;45.54;101593.72;4615531;27;20022;-62
2023/10/04 07:15:19;;;;;;;2.17;0.90;;;;;;;21.98;45.73;101600.78;4616734;27;20031;-62
2023/10/04 07:17:30;;;;;;;1.17;0.90;;;;;;;21.97;45.81;101604.88;4621124;27;20035;-62
2023/10/04 07:19:41;;;;;;;2.40;1.02;;;;;;;21.98;45.87;101597.91;4617956;27;20047;-62
2023/10/04 07:21:51;;;;;;;1.90;1.10;;;;;;;21.93;45.77;101591.53;4619580;27;20035;-62
2023/10/04 07:24:01;;;;;;;1.65;0.98;;;;;;;21.97;45.72;101599.13;4617308;27;20023;-62
2023/10/04 07:26:12;;;;;;;1.48;0.80;;;;;;;21.97;46.02;101601.13;4618104;27;20035;-62
2023/10/04 07:28:24;;;;;;;1.38;0.90;;;;;;;21.95;45.97;101598.63;4616681;27;20027;-62
2023/10/04 07:30:35;;;;;;;1.55;1.10;;;;;;;21.94;45.80;101607.59;4615835;27;20035;-62
2023/10/04 07:32:46;;;;;;;2.28;1.00;;;;;;;21.86;45.66;101594.13;4617339;27;20471;-62
2023/10/04 07:34:57;;;;;;;1.85;1.00;;;;;;;21.88;45.96;101604.09;4615963;27;20044;-62
2023/10/04 07:37:08;;;;;;;1.73;0.88;;;;;;;21.93;45.72;101615.38;4616776;27;20042;-62
2023/10/04 07:39:21;;;;;;;2.45;1.10;;;;;;;21.93;45.68;101612.50;4616439;27;20042;-62
2023/10/04 07:41:31;;;;;;;1.17;0.98;;;;;;;21.92;46.10;101607.94;4615227;27;20102;-62
2023/10/04 07:43:42;;;;;;;1.33;1.00;;;;;;;21.96;46.00;101623.28;4618546;27;20038;-62
2023/10/04 07:45:53;;;;;;;1.73;1.10;;;;;;;21.93;46.28;101629.75;4615537;27;20470;-62
2023/10/04 07:48:04;;;;;;;1.95;1.05;;;;;;;21.96;46.21;101646.28;4615052;27;20026;-62
2023/10/04 07:50:22;;;;;;;2.30;1.20;;;;;;;21.96;46.22;101640.53;4616797;27;20118;-62
2023/10/04 07:52:32;;;;;;;2.85;1.13;;;;;;;21.95;46.08;101636.00;4616426;27;20126;-62
2023/10/04 07:54:43;;;;;;;1.98;1.13;;;;;;;21.95;46.19;101633.13;4615032;27;20106;-62
2023/10/04 07:56:54;;;;;;;2.40;1.10;;;;;;;21.97;46.26;101638.50;4616868;27;20100;-62
2023/10/04 07:59:06;;;;;;;1.55;1.00;;;;;;;21.96;46.02;101636.84;4617179;27;20074;-62
2023/10/04 08:01:17;;;;;;;1.38;1.00;;;;;;;21.94;46.65;101624.84;4616993;27;20039;-62
2023/10/04 08:03:29;;;;;;;1.67;1.20;;;;;;;21.93;46.41;101637.50;4615926;27;20122;-62
2023/10/04 08:05:39;;;;;;;1.77;1.33;;;;;;;21.92;46.04;101633.81;4618140;27;20033;-62
2023/10/04 08:07:52;;;;;;;2.42;1.15;;;;;;;21.94;46.54;101648.69;4600421;27;20504;-62
2023/10/04 08:10:03;;;;;;;1.92;1.20;;;;;;;21.94;46.57;101644.97;4616472;27;20609;-62
2023/10/04 08:12:14;;;;;;;2.22;1.20;;;;;;;21.95;46.36;101638.00;4616572;27;20038;-62
2023/10/04 08:14:25;;;;;;;1.52;1.05;;;;;;;21.95;46.88;101644.63;4615865;27;20141;-62
2023/10/04 08:16:36;;;;;;;2.95;1.30;;;;;;;21.94;46.76;101640.06;4615360;27;20589;-62
2023/10/04 08:18:46;;;;;;;2.00;1.25;;;;;;;21.94;46.79;101631.44;4615998;27;20039;-62
2023/10/04 08:21:05;;;;;;;1.98;1.30;;;;;;;21.90;46.27;101627.56;4616530;27;20035;-62
2023/10/04 08:23:16;;;;;;;3.25;1.25;;;;;;;21.94;46.84;101642.09;4622261;27;20104;-62
2023/10/04 08:25:31;;;;;;;1.92;1.20;;;;;;;21.94;46.85;101653.59;4616088;27;20027;-62
2023/10/04 08:27:43;;;;;;;1.33;1.00;;;;;;;21.95;47.01;101643.75;4614331;27;20047;-62
2023/10/04 08:29:54;;;;;;;2.53;1.30;;;;;;;21.92;46.89;101639.56;4615955;27;20039;-62
2023/10/04 08:32:05;;;;;;;1.90;1.20;;;;;;;21.91;46.81;101642.78;4614833;27;20023;-62
2023/10/04 08:34:18;;;;;;;2.40;1.33;;;;;;;21.94;47.18;101645.81;4617665;27;20035;-62
2023/10/04 08:36:28;;;;;;;2.15;1.27;;;;;;;21.90;46.92;101644.81;4614425;27;20028;-62
2023/10/04 08:38:41;;;;;;;2.17;1.15;;;;;;;21.93;46.94;101647.00;4618272;27;20039;-62
2023/10/04 08:40:53;;;;;;;1.98;1.20;;;;;;;21.89;46.70;101639.44;4615778;27;20027;-62
2023/10/04 08:43:04;;;;;;;2.35;1.00;;;;;;;21.83;47.15;101635.94;4617714;27;20023;-62
2023/10/04 08:45:16;;;;;;;2.25;1.17;;;;;;;21.88;47.04;101644.31;4616989;27;20894;-62
2023/10/04 08:47:27;;;;;;;1.88;1.20;;;;;;;21.90;46.92;101647.69;4614916;27;20051;-62
2023/10/04 08:49:53;;;;;;;2.45;1.30;;;;;;;21.93;47.52;101652.75;4615867;27;20034;-62
2023/10/04 08:52:14;;;;;;;3.22;1.23;;;;;;;21.86;47.16;101637.25;4615109;27;20032;-62
2023/10/04 08:54:26;;;;;;;2.30;1.20;;;;;;;21.92;47.29;101648.19;4615324;27;20069;-62
2023/10/04 08:56:47;;;;;;;1.95;1.08;;;;;;;21.91;46.92;101640.75;4613602;27;20035;-62
2023/10/04 08:58:59;;;;;;;2.58;1.30;;;;;;;21.89;47.21;101639.44;4618542;27;20138;-62
2023/10/04 09:01:13;;;;;;;2.42;1.30;;;;;;;21.93;47.17;101647.00;4618883;27;20850;-62
2023/10/04 09:03:25;;;;;;;2.22;1.00;;;;;;;21.91;47.22;101648.53;4615035;27;20185;-62
2023/10/04 09:05:36;;;;;;;2.30;1.20;;;;;;;21.88;47.57;101637.75;4618245;27;20083;-62
2023/10/04 09:07:50;;;;;;;1.70;1.13;;;;;;;21.90;47.52;101638.22;4619535;27;20081;-62
2023/10/04 09:10:03;;;;;;;2.72;1.25;;;;;;;21.87;47.29;101639.78;4619338;27;20070;-62
2023/10/04 09:12:14;;;;;;;1.73;1.10;;;;;;;21.90;47.15;101647.69;4618960;27;20033;-62
2023/10/04 09:14:25;;;;;;;1.90;1.05;;;;;;;21.91;46.93;101642.78;4618896;27;20046;-62
2023/10/04 09:16:35;;;;;;;1.92;1.00;;;;;;;21.92;47.04;101633.81;4619218;27;20468;-62
2023/10/04 09:18:46;;;;;;;3.28;1.23;;;;;;;21.85;47.46;101627.78;4619325;27;20073;-62
2023/10/04 09:20:56;;;;;;;2.15;1.23;;;;;;;21.88;47.61;101632.81;4618683;27;20085;-62
2023/10/04 09:23:22;;;;;;;3.05;1.30;;;;;;;21.92;47.28;101639.56;4618999;27;20084;-62
2023/10/04 09:25:40;;;;;;;1.80;1.00;;;;;;;21.93;47.66;101641.25;4620394;27;20031;-62
2023/10/04 09:27:55;;;;;;;1.77;1.10;;;;;;;21.92;47.74;101645.31;4599560;27;20040;-62
2023/10/04 09:30:21;;;;;;;2.58;1.25;;;;;;;21.92;47.72;101648.19;4616100;27;20060;-62
2023/10/04 09:32:42;;;;;;;2.10;1.13;;;;;;;21.92;47.83;101645.31;4615930;27;20597;-62
2023/10/04 09:34:58;;;;;;;1.88;1.15;;;;;;;21.90;47.28;101641.09;4617535;27;20027;-62
2023/10/04 09:37:23;;;;;;;1.23;1.10;;;;;;;21.84;47.95;101631.84;4620215;27;20962;-62
2023/10/04 09:39:36;;;;;;;1.67;1.30;;;;;;;21.90;48.11;101635.34;4616674;27;20657;-62
2023/10/04 09:41:47;;;;;;;1.73;1.00;;;;;;;21.90;47.90;101636.19;4617473;27;20042;-62
2023/10/04 09:43:58;;;;;;;2.28;1.30;;;;;;;21.92;47.65;101648.19;4617920;27;20023;-63
2023/10/04 09:46:10;;;;;;;2.67;1.20;;;;;;;21.91;48.23;101645.66;4618145;27;20491;-62
2023/10/04 09:48:21;;;;;;;2.17;1.02;;;;;;;21.88;48.04;101652.94;4619251;27;21269;-62
2023/10/04 09:50:33;;;;;;;2.10;1.20;;;;;;;21.88;48.08;101640.63;4617616;27;20046;-62
2023/10/04 09:52:44;;;;;;;2.83;1.10;;;;;;;21.90;47.86;101650.56;4618998;27;20683;-62
2023/10/04 09:54:54;;;;;;;2.33;1.02;;;;;;;21.91;47.97;101648.53;4615593;27;20096;-62
2023/10/04 09:57:07;;;;;;;1.77;0.98;;;;;;;21.87;47.80;101642.66;4618772;27;20523;-62
2023/10/04 09:59:19;;;;;;;2.35;1.17;;;;;;;21.92;47.79;101648.19;4617709;27;20074;-62
2023/10/04 10:01:30;;;;;;;1.90;1.10;;;;;;;21.90;47.77;101644.81;4618826;27;20069;-62
2023/10/04 10:03:55;;;;;;;2.97;1.20;;;;;;;21.85;47.82;101645.03;4607630;27;20043;-62
2023/10/04 10:06:09;;;;;;;3.10;1.17;;;;;;;21.87;48.64;101638.94;4619159;27;20140;-62
2023/10/04 10:08:21;;;;;;;2.00;1.20;;;;;;;21.82;48.01;101634.22;4620772;27;20027;-62
2023/10/04 10:10:41;;;;;;;1.73;1.20;;;;;;;21.90;47.59;101653.44;4618022;27;20076;-62
2023/10/04 10:12:51;;;;;;;2.72;1.20;;;;;;;21.90;47.63;101653.44;4619543;27;20060;-62
2023/10/04 10:15:07;;;;;;;2.25;1.20;;;;;;;21.91;48.30;101657.16;4600098;27;20513;-62
2023/10/04 10:17:18;;;;;;;2.15;1.13;;;;;;;21.91;47.74;101655.13;4617701;27;20150;-62